Southwest Georgia Regional Airport
KABY : now visible

Airfield :











YOU CAN JOIN US ON...

 
LOGIN :

Register | Disclaimer

   EN    FR    IT 

 









Legend :    VFR   Marginal VFR   IFR   Intensive IFR   Very Intensive IFR
Visi :
Ceiling :
>= 8 km
>= 3000ft
5 to 8 km
1000 to 3000 ft
1500m to 5 km
500 to 1000 ft
800 to 1500m
200 to 500 ft
< 800m
< 200 ft
Symbols :   Thunderstorms  Fog  Heavy snow  Heavy precipitations  Wind > 20 kt






- Airport Elevation : 197 ft
- IATA code : ABY


KABY - Southwest Georgia Regional

CURRENT METAR :
  • 152353Z 28004KT 10SM CLR 11/00 A2979 RMK AO2 SLP086 T01060000 10178 20106 53018

EXPIRED METARs :
  • 152253Z 25005KT 10SM CLR 14/01 A2976 RMK AO2 SLP075 T01390006
  • 152153Z 27008KT 10SM CLR 17/00 A2975 RMK AO2 SLP074 T01670000
  • 152053Z 28010KT 10SM CLR 17/01 A2974 RMK AO2 SLP068 T01720006 56017

TAF KABY
Valid from the 16 at 00:00 until the 17 at 00:00 UTC


152339Z 1600/1624 26005KT P6SM SKC
FM161600 27014G22KT P6SM FEW250
FM162300 28006KT P6SM SKC
KZJX FIR / North America



MET'MAP, your aeronautical weather chart ! - Copyright ORBIFLY December 2007 - Disclaimer

ORBIFLY MET'MAP TEAM :

Programming & Development : Alexandra Zaïnal
Concept & original design : Baudouin d'Aumeries
Assistance for programming : Marc-Olivier Méhu
Technical & hardware support : Manuel Goepfert

Contact : metmap@orbifly.com




SOURCES & CREDITS :

   NOAA       Earth
Advisory